sensor_id;sensor_type;location;lat;lon;timestamp;pressure;altitude;pressure_sealevel;temperature;humidity
11440;BME280;5776;51.814;4.510;2023-07-29T00:02:08;100780.84;;;17.54;100.00
11440;BME280;5776;51.814;4.510;2023-07-29T00:04:34;100778.91;;;17.55;100.00
11440;BME280;5776;51.814;4.510;2023-07-29T00:07:01;100782.31;;;17.52;100.00
11440;BME280;5776;51.814;4.510;2023-07-29T00:09:27;100778.78;;;17.51;100.00
11440;BME280;5776;51.814;4.510;2023-07-29T00:11:52;100781.84;;;17.49;100.00
11440;BME280;5776;51.814;4.510;2023-07-29T00:14:18;100779.91;;;17.50;100.00
11440;BME280;5776;51.814;4.510;2023-07-29T00:16:44;100778.31;;;17.49;100.00
11440;BME280;5776;51.814;4.510;2023-07-29T00:19:10;100775.88;;;17.47;100.00
11440;BME280;5776;51.814;4.510;2023-07-29T00:21:36;100777.03;;;17.46;100.00
11440;BME280;5776;51.814;4.510;2023-07-29T00:24:02;100781.72;;;17.46;100.00
11440;BME280;5776;51.814;4.510;2023-07-29T00:26:28;100773.50;;;17.46;100.00
11440;BME280;5776;51.814;4.510;2023-07-29T00:28:56;100771.06;;;17.44;100.00
11440;BME280;5776;51.814;4.510;2023-07-29T00:31:22;100782.06;;;17.44;100.00
11440;BME280;5776;51.814;4.510;2023-07-29T00:33:49;100774.97;;;17.43;100.00
11440;BME280;5776;51.814;4.510;2023-07-29T00:36:14;100767.84;;;17.42;100.00
11440;BME280;5776;51.814;4.510;2023-07-29T00:38:40;100766.25;;;17.41;100.00
11440;BME280;5776;51.814;4.510;2023-07-29T00:41:06;100764.63;;;17.40;100.00
11440;BME280;5776;51.814;4.510;2023-07-29T00:43:32;100775.97;;;17.39;100.00
11440;BME280;5776;51.814;4.510;2023-07-29T00:46:00;100773.22;;;17.39;100.00
11440;BME280;5776;51.814;4.510;2023-07-29T00:48:27;100769.22;;;17.36;100.00
11440;BME280;5776;51.814;4.510;2023-07-29T00:50:54;100770.34;;;17.35;100.00
11440;BME280;5776;51.814;4.510;2023-07-29T00:53:19;100771.47;;;17.34;100.00
11440;BME280;5776;51.814;4.510;2023-07-29T00:55:45;100762.44;;;17.34;100.00
11440;BME280;5776;51.814;4.510;2023-07-29T00:58:11;100768.25;;;17.32;100.00
11440;BME280;5776;51.814;4.510;2023-07-29T01:00:38;100766.66;;;17.31;100.00
11440;BME280;5776;51.814;4.510;2023-07-29T01:03:05;100767.78;;;17.30;100.00
11440;BME280;5776;51.814;4.510;2023-07-29T01:05:58;100761.84;;;17.28;100.00
11440;BME280;5776;51.814;4.510;2023-07-29T01:09:03;100767.34;;;17.28;100.00
11440;BME280;5776;51.814;4.510;2023-07-29T01:11:38;100757.84;;;17.25;100.00
11440;BME280;5776;51.814;4.510;2023-07-29T01:14:30;100757.38;;;17.23;100.00
11440;BME280;5776;51.814;4.510;2023-07-29T01:17:03;100756.22;;;17.24;100.00
11440;BME280;5776;51.814;4.510;2023-07-29T01:20:09;100751.09;;;17.23;100.00
11440;BME280;5776;51.814;4.510;2023-07-29T01:22:37;100746.72;;;17.22;100.00
11440;BME280;5776;51.814;4.510;2023-07-29T01:25:05;100745.13;;;17.21;100.00
11440;BME280;5776;51.814;4.510;2023-07-29T01:27:31;100752.53;;;17.20;100.00
11440;BME280;5776;51.814;4.510;2023-07-29T01:30:00;100742.69;;;17.19;100.00
11440;BME280;5776;51.814;4.510;2023-07-29T01:32:50;100738.00;;;17.20;100.00
11440;BME280;5776;51.814;4.510;2023-07-29T01:38:33;100732.03;;;17.18;100.00
11440;BME280;5776;51.814;4.510;2023-07-29T01:41:06;100728.84;;;17.16;100.00
11440;BME280;5776;51.814;4.510;2023-07-29T01:43:34;100734.34;;;17.16;100.00
11440;BME280;5776;51.814;4.510;2023-07-29T01:46:02;100746.44;;;17.15;100.00
11440;BME280;5776;51.814;4.510;2023-07-29T01:48:28;100747.13;;;17.12;100.00
11440;BME280;5776;51.814;4.510;2023-07-29T01:50:56;100733.72;;;17.10;100.00
11440;BME280;5776;51.814;4.510;2023-07-29T01:53:22;100729.06;;;17.11;100.00
11440;BME280;5776;51.814;4.510;2023-07-29T01:55:48;100728.22;;;17.10;100.00
11440;BME280;5776;51.814;4.510;2023-07-29T01:58:13;100724.22;;;17.08;100.00
11440;BME280;5776;51.814;4.510;2023-07-29T02:00:40;100721.84;;;17.06;100.00
11440;BME280;5776;51.814;4.510;2023-07-29T02:03:05;100723.78;;;17.05;100.00
11440;BME280;5776;51.814;4.510;2023-07-29T02:05:31;100715.53;;;17.05;100.00
11440;BME280;5776;51.814;4.510;2023-07-29T02:07:57;100719.41;;;17.04;100.00
11440;BME280;5776;51.814;4.510;2023-07-29T02:10:23;100709.13;;;17.01;100.00
11440;BME280;5776;51.814;4.510;2023-07-29T02:12:49;100716.53;;;17.01;100.00
11440;BME280;5776;51.814;4.510;2023-07-29T02:15:15;100713.00;;;17.00;100.00
11440;BME280;5776;51.814;4.510;2023-07-29T02:17:42;100719.59;;;16.99;100.00
11440;BME280;5776;51.814;4.510;2023-07-29T02:20:08;100712.19;;;17.00;100.00
11440;BME280;5776;51.814;4.510;2023-07-29T02:22:34;100700.41;;;16.99;100.00
11440;BME280;5776;51.814;4.510;2023-07-29T02:25:00;100694.13;;;16.99;100.00
11440;BME280;5776;51.814;4.510;2023-07-29T02:27:27;100679.25;;;17.00;100.00
11440;BME280;5776;51.814;4.510;2023-07-29T02:29:54;100683.16;;;16.99;100.00
11440;BME280;5776;51.814;4.510;2023-07-29T02:32:20;100679.94;;;16.97;100.00
11440;BME280;5776;51.814;4.510;2023-07-29T02:34:46;100688.97;;;16.97;100.00
11440;BME280;5776;51.814;4.510;2023-07-29T02:37:12;100673.66;;;16.96;100.00
11440;BME280;5776;51.814;4.510;2023-07-29T02:39:38;100678.34;;;16.96;100.00
11440;BME280;5776;51.814;4.510;2023-07-29T02:42:04;100687.69;;;16.95;100.00
11440;BME280;5776;51.814;4.510;2023-07-29T02:44:31;100691.22;;;16.95;100.00
11440;BME280;5776;51.814;4.510;2023-07-29T02:46:57;100695.44;;;16.93;100.00
11440;BME280;5776;51.814;4.510;2023-07-29T02:49:23;100700.94;;;16.93;100.00
11440;BME280;5776;51.814;4.510;2023-07-29T02:51:49;100709.50;;;16.91;100.00
11440;BME280;5776;51.814;4.510;2023-07-29T02:54:15;100711.78;;;16.89;100.00
11440;BME280;5776;51.814;4.510;2023-07-29T02:56:41;100710.63;;;16.90;100.00
11440;BME280;5776;51.814;4.510;2023-07-29T02:59:07;100710.63;;;16.90;100.00
11440;BME280;5776;51.814;4.510;2023-07-29T03:01:33;100709.03;;;16.89;100.00
11440;BME280;5776;51.814;4.510;2023-07-29T03:03:59;100709.34;;;16.88;100.00
11440;BME280;5776;51.814;4.510;2023-07-29T03:06:25;100700.00;;;16.89;100.00
11440;BME280;5776;51.814;4.510;2023-07-29T03:08:51;100703.06;;;16.87;100.00
11440;BME280;5776;51.814;4.510;2023-07-29T03:11:17;100701.47;;;16.86;100.00
11440;BME280;5776;51.814;4.510;2023-07-29T03:13:43;100711.66;;;16.86;100.00
11440;BME280;5776;51.814;4.510;2023-07-29T03:16:14;100709.22;;;16.84;100.00
11440;BME280;5776;51.814;4.510;2023-07-29T03:18:41;100706.00;;;16.82;100.00
11440;BME280;5776;51.814;4.510;2023-07-29T03:21:08;100701.69;;;16.81;100.00
11440;BME280;5776;51.814;4.510;2023-07-29T03:23:34;100697.31;;;16.80;100.00
11440;BME280;5776;51.814;4.510;2023-07-29T03:26:01;100700.88;;;16.80;100.00
11440;BME280;5776;51.814;4.510;2023-07-29T03:28:33;100709.44;;;16.79;100.00
11440;BME280;5776;51.814;4.510;2023-07-29T03:30:59;100702.00;;;16.79;100.00
11440;BME280;5776;51.814;4.510;2023-07-29T03:33:25;100703.94;;;16.79;100.00
11440;BME280;5776;51.814;4.510;2023-07-29T03:35:53;100707.84;;;16.78;100.00
11440;BME280;5776;51.814;4.510;2023-07-29T03:38:19;100703.44;;;16.77;100.00
11440;BME280;5776;51.814;4.510;2023-07-29T03:40:45;100709.72;;;16.77;100.00
11440;BME280;5776;51.814;4.510;2023-07-29T03:43:11;100699.09;;;16.76;100.00
11440;BME280;5776;51.814;4.510;2023-07-29T03:45:37;100705.38;;;16.76;100.00
11440;BME280;5776;51.814;4.510;2023-07-29T03:48:04;100706.19;;;16.77;100.00
11440;BME280;5776;51.814;4.510;2023-07-29T03:50:30;100705.69;;;16.75;100.00
11440;BME280;5776;51.814;4.510;2023-07-29T03:52:56;100711.19;;;16.75;100.00
11440;BME280;5776;51.814;4.510;2023-07-29T03:55:22;100712.34;;;16.74;100.00
11440;BME280;5776;51.814;4.510;2023-07-29T03:57:49;100706.84;;;16.74;100.00
11440;BME280;5776;51.814;4.510;2023-07-29T04:00:15;100704.13;;;16.74;100.00
11440;BME280;5776;51.814;4.510;2023-07-29T04:02:42;100706.06;;;16.73;100.00
11440;BME280;5776;51.814;4.510;2023-07-29T04:05:08;100708.81;;;16.73;100.00
11440;BME280;5776;51.814;4.510;2023-07-29T04:07:35;100703.31;;;16.73;100.00
11440;BME280;5776;51.814;4.510;2023-07-29T04:10:02;100706.38;;;16.72;100.00
11440;BME280;5776;51.814;4.510;2023-07-29T04:12:28;100702.53;;;16.73;100.00
11440;BME280;5776;51.814;4.510;2023-07-29T04:14:54;100700.91;;;16.72;100.00
11440;BME280;5776;51.814;4.510;2023-07-29T04:17:20;100692.66;;;16.72;100.00
11440;BME280;5776;51.814;4.510;2023-07-29T04:19:46;100711.84;;;16.72;100.00
11440;BME280;5776;51.814;4.510;2023-07-29T04:22:12;100706.38;;;16.72;100.00
11440;BME280;5776;51.814;4.510;2023-07-29T04:24:38;100700.91;;;16.72;100.00
11440;BME280;5776;51.814;4.510;2023-07-29T04:27:05;100694.94;;;16.70;100.00
11440;BME280;5776;51.814;4.510;2023-07-29T04:29:32;100697.69;;;16.70;100.00
11440;BME280;5776;51.814;4.510;2023-07-29T04:31:58;100711.84;;;16.72;100.00
11440;BME280;5776;51.814;4.510;2023-07-29T04:34:24;100723.16;;;16.70;100.00
11440;BME280;5776;51.814;4.510;2023-07-29T04:36:51;100729.47;;;16.71;100.00
11440;BME280;5776;51.814;4.510;2023-07-29T04:39:17;100727.84;;;16.70;100.00
11440;BME280;5776;51.814;4.510;2023-07-29T04:41:43;100722.34;;;16.70;100.00
11440;BME280;5776;51.814;4.510;2023-07-29T04:44:09;100726.06;;;16.74;100.00
11440;BME280;5776;51.814;4.510;2023-07-29T04:46:36;100727.19;;;16.73;100.00
11440;BME280;5776;51.814;4.510;2023-07-29T04:49:02;100729.94;;;16.73;100.00
11440;BME280;5776;51.814;4.510;2023-07-29T04:51:28;100722.84;;;16.72;100.00
11440;BME280;5776;51.814;4.510;2023-07-29T04:53:54;100718.97;;;16.73;100.00
11440;BME280;5776;51.814;4.510;2023-07-29T04:56:20;100719.78;;;16.73;100.00
11440;BME280;5776;51.814;4.510;2023-07-29T04:58:46;100716.69;;;16.75;100.00
11440;BME280;5776;51.814;4.510;2023-07-29T05:01:12;100718.31;;;16.76;100.00
11440;BME280;5776;51.814;4.510;2023-07-29T05:03:38;100712.03;;;16.75;100.00
11440;BME280;5776;51.814;4.510;2023-07-29T05:06:05;100714.75;;;16.75;100.00
11440;BME280;5776;51.814;4.510;2023-07-29T05:08:31;100712.47;;;16.77;100.00
11440;BME280;5776;51.814;4.510;2023-07-29T05:10:56;100710.56;;;16.78;100.00
11440;BME280;5776;51.814;4.510;2023-07-29T05:13:23;100711.38;;;16.78;100.00
11440;BME280;5776;51.814;4.510;2023-07-29T05:15:49;100699.25;;;16.79;100.00
11440;BME280;5776;51.814;4.510;2023-07-29T05:18:16;100699.25;;;16.79;100.00
11440;BME280;5776;51.814;4.510;2023-07-29T05:20:42;100699.59;;;16.78;100.00
11440;BME280;5776;51.814;4.510;2023-07-29T05:23:08;100702.78;;;16.80;100.00
11440;BME280;5776;51.814;4.510;2023-07-29T05:25:34;100697.31;;;16.80;100.00
11440;BME280;5776;51.814;4.510;2023-07-29T05:28:03;100694.56;;;16.80;100.00
11440;BME280;5776;51.814;4.510;2023-07-29T05:30:30;100704.41;;;16.81;100.00
11440;BME280;5776;51.814;4.510;2023-07-29T05:32:57;100699.25;;;16.79;100.00
11440;BME280;5776;51.814;4.510;2023-07-29T05:35:23;100704.41;;;16.81;100.00
11440;BME280;5776;51.814;4.510;2023-07-29T05:37:49;100706.81;;;16.82;100.00
11440;BME280;5776;51.814;4.510;2023-07-29T05:40:15;100696.66;;;16.83;100.00
11440;BME280;5776;51.814;4.510;2023-07-29T05:42:41;100709.22;;;16.84;100.00
11440;BME280;5776;51.814;4.510;2023-07-29T05:45:07;100706.97;;;16.86;100.00
11440;BME280;5776;51.814;4.510;2023-07-29T05:47:33;100708.56;;;16.87;100.00
11440;BME280;5776;51.814;4.510;2023-07-29T05:49:59;100713.72;;;16.89;100.00
11440;BME280;5776;51.814;4.510;2023-07-29T05:52:33;100714.19;;;16.91;100.00
11440;BME280;5776;51.814;4.510;2023-07-29T05:54:59;100720.47;;;16.91;100.00
11440;BME280;5776;51.814;4.510;2023-07-29T05:57:25;100721.75;;;16.94;100.00
11440;BME280;5776;51.814;4.510;2023-07-29T05:59:51;100721.41;;;16.95;100.00
11440;BME280;5776;51.814;4.510;2023-07-29T06:02:17;100722.22;;;16.96;100.00
11440;BME280;5776;51.814;4.510;2023-07-29T06:04:43;100713.66;;;16.97;100.00
11440;BME280;5776;51.814;4.510;2023-07-29T06:07:08;100730.59;;;16.99;100.00
11440;BME280;5776;51.814;4.510;2023-07-29T06:09:34;100723.97;;;17.00;100.00
11440;BME280;5776;51.814;4.510;2023-07-29T06:12:00;100729.91;;;17.02;100.00
11440;BME280;5776;51.814;4.510;2023-07-29T06:14:28;100726.84;;;17.04;100.00
11440;BME280;5776;51.814;4.510;2023-07-29T06:16:54;100724.91;;;17.04;100.00
11440;BME280;5776;51.814;4.510;2023-07-29T06:19:20;100730.84;;;17.06;100.00
11440;BME280;5776;51.814;4.510;2023-07-29T06:21:48;100726.16;;;17.07;100.00
11440;BME280;5776;51.814;4.510;2023-07-29T06:24:13;100732.94;;;17.10;100.00
11440;BME280;5776;51.814;4.510;2023-07-29T06:26:39;100728.22;;;17.10;100.00
11440;BME280;5776;51.814;4.510;2023-07-29T06:29:05;100730.66;;;17.12;100.00
11440;BME280;5776;51.814;4.510;2023-07-29T06:31:31;100727.59;;;17.13;100.00
11440;BME280;5776;51.814;4.510;2023-07-29T06:33:58;100728.84;;;17.16;100.00
11440;BME280;5776;51.814;4.510;2023-07-29T06:36:24;100734.78;;;17.18;100.00
11440;BME280;5776;51.814;4.510;2023-07-29T06:38:50;100737.69;;;17.21;100.00
11440;BME280;5776;51.814;4.510;2023-07-29T06:41:16;100735.41;;;17.23;100.00
11440;BME280;5776;51.814;4.510;2023-07-29T06:43:42;100735.53;;;17.27;100.00
11440;BME280;5776;51.814;4.510;2023-07-29T06:46:09;100740.69;;;17.28;100.00
11440;BME280;5776;51.814;4.510;2023-07-29T06:48:36;100742.44;;;17.33;100.00
11440;BME280;5776;51.814;4.510;2023-07-29T06:51:02;100730.78;;;17.36;100.00
11440;BME280;5776;51.814;4.510;2023-07-29T06:53:29;100728.03;;;17.36;100.00
11440;BME280;5776;51.814;4.510;2023-07-29T06:55:55;100734.78;;;17.39;100.00
11440;BME280;5776;51.814;4.510;2023-07-29T06:58:21;100728.63;;;17.42;100.00
11440;BME280;5776;51.814;4.510;2023-07-29T07:00:47;100725.56;;;17.43;100.00
11440;BME280;5776;51.814;4.510;2023-07-29T07:03:13;100722.13;;;17.46;100.00
11440;BME280;5776;51.814;4.510;2023-07-29T07:05:39;100727.75;;;17.50;100.00
11440;BME280;5776;51.814;4.510;2023-07-29T07:08:04;100730.28;;;17.55;100.00
11440;BME280;5776;51.814;4.510;2023-07-29T07:10:30;100737.84;;;17.58;100.00
11440;BME280;5776;51.814;4.510;2023-07-29T07:12:56;100735.56;;;17.60;100.00
11440;BME280;5776;51.814;4.510;2023-07-29T07:15:22;100738.78;;;17.62;100.00
11440;BME280;5776;51.814;4.510;2023-07-29T07:17:48;100742.78;;;17.65;100.00
11440;BME280;5776;51.814;4.510;2023-07-29T07:20:14;100741.31;;;17.67;100.00
11440;BME280;5776;51.814;4.510;2023-07-29T07:22:39;100739.81;;;17.70;100.00
11440;BME280;5776;51.814;4.510;2023-07-29T07:25:06;100744.66;;;17.73;100.00
11440;BME280;5776;51.814;4.510;2023-07-29T07:27:32;100746.25;;;17.74;100.00
11440;BME280;5776;51.814;4.510;2023-07-29T07:29:57;100743.97;;;17.76;100.00
11440;BME280;5776;51.814;4.510;2023-07-29T07:32:23;100754.59;;;17.78;100.00
11440;BME280;5776;51.814;4.510;2023-07-29T07:34:49;100752.38;;;17.80;100.00
11440;BME280;5776;51.814;4.510;2023-07-29T07:37:15;100748.94;;;17.83;100.00
11440;BME280;5776;51.814;4.510;2023-07-29T07:39:41;100754.91;;;17.85;100.00
11440;BME280;5776;51.814;4.510;2023-07-29T07:42:07;100757.31;;;17.86;100.00
11440;BME280;5776;51.814;4.510;2023-07-29T07:44:33;100753.41;;;17.87;100.00
11440;BME280;5776;51.814;4.510;2023-07-29T07:46:59;100759.38;;;17.89;100.00
11440;BME280;5776;51.814;4.510;2023-07-29T07:49:25;100759.84;;;17.91;100.00
11440;BME280;5776;51.814;4.510;2023-07-29T07:51:51;100761.91;;;17.95;100.00
11440;BME280;5776;51.814;4.510;2023-07-29T07:54:17;100759.63;;;17.97;100.00
11440;BME280;5776;51.814;4.510;2023-07-29T07:56:43;100762.84;;;17.99;100.00
11440;BME280;5776;51.814;4.510;2023-07-29T07:59:09;100767.19;;;18.00;100.00
11440;BME280;5776;51.814;4.510;2023-07-29T08:01:37;100758.94;;;18.00;100.00
11440;BME280;5776;51.814;4.510;2023-07-29T08:04:04;100772.34;;;18.01;100.00
11440;BME280;5776;51.814;4.510;2023-07-29T08:06:30;100772.47;;;18.05;100.00
11440;BME280;5776;51.814;4.510;2023-07-29T08:08:56;100771.34;;;18.06;100.00
11440;BME280;5776;51.814;4.510;2023-07-29T08:11:22;100776.47;;;18.07;100.00
11440;BME280;5776;51.814;4.510;2023-07-29T08:13:48;100774.31;;;18.13;100.00
11440;BME280;5776;51.814;4.510;2023-07-29T08:16:14;100773.19;;;18.14;100.00
11440;BME280;5776;51.814;4.510;2023-07-29T08:18:40;100771.34;;;18.18;100.00
11440;BME280;5776;51.814;4.510;2023-07-29T08:21:05;100776.63;;;18.23;100.00
11440;BME280;5776;51.814;4.510;2023-07-29T08:23:34;100773.19;;;18.26;100.00
11440;BME280;5776;51.814;4.510;2023-07-29T08:26:01;100760.72;;;18.29;100.00
11440;BME280;5776;51.814;4.510;2023-07-29T08:30:56;100767.25;;;18.37;100.00
11440;BME280;5776;51.814;4.510;2023-07-29T08:33:23;100767.03;;;18.42;100.00
11440;BME280;5776;51.814;4.510;2023-07-29T08:35:50;100763.34;;;18.50;100.00
11440;BME280;5776;51.814;4.510;2023-07-29T08:38:16;100766.25;;;18.53;100.00
11440;BME280;5776;51.814;4.510;2023-07-29T08:40:49;100771.16;;;18.60;100.00
11440;BME280;5776;51.814;4.510;2023-07-29T08:43:19;100776.41;;;18.65;100.00
11440;BME280;5776;51.814;4.510;2023-07-29T08:45:46;100778.16;;;18.70;100.00
11440;BME280;5776;51.814;4.510;2023-07-29T08:48:12;100773.09;;;18.72;100.00
11440;BME280;5776;51.814;4.510;2023-07-29T08:50:42;100777.13;;;18.74;100.00
11440;BME280;5776;51.814;4.510;2023-07-29T08:53:10;100776.00;;;18.75;100.00
11440;BME280;5776;51.814;4.510;2023-07-29T08:55:36;100785.06;;;18.76;100.00
11440;BME280;5776;51.814;4.510;2023-07-29T08:58:02;100785.84;;;18.76;100.00
11440;BME280;5776;51.814;4.510;2023-07-29T09:00:29;100777.25;;;18.78;100.00
11440;BME280;5776;51.814;4.510;2023-07-29T09:02:55;100779.66;;;18.80;100.00
11440;BME280;5776;51.814;4.510;2023-07-29T09:05:21;100778.50;;;18.81;100.00
11440;BME280;5776;51.814;4.510;2023-07-29T09:07:48;100773.47;;;18.83;100.00
11440;BME280;5776;51.814;4.510;2023-07-29T09:10:15;100773.13;;;18.84;100.00
11440;BME280;5776;51.814;4.510;2023-07-29T09:12:41;100772.75;;;18.86;100.00
11440;BME280;5776;51.814;4.510;2023-07-29T09:15:08;100774.03;;;18.88;100.00
11440;BME280;5776;51.814;4.510;2023-07-29T09:17:34;100774.16;;;18.92;100.00
11440;BME280;5776;51.814;4.510;2023-07-29T09:20:00;100775.03;;;18.96;100.00
11440;BME280;5776;51.814;4.510;2023-07-29T09:22:27;100771.25;;;19.00;100.00
11440;BME280;5776;51.814;4.510;2023-07-29T09:24:53;100774.47;;;19.03;100.00
11440;BME280;5776;51.814;4.510;2023-07-29T09:27:26;100765.88;;;19.04;100.00
11440;BME280;5776;51.814;4.510;2023-07-29T09:29:53;100767.94;;;19.07;100.00
11440;BME280;5776;51.814;4.510;2023-07-29T09:32:20;100780.53;;;19.08;100.00
11440;BME280;5776;51.814;4.510;2023-07-29T09:34:47;100777.78;;;19.08;100.00
11440;BME280;5776;51.814;4.510;2023-07-29T09:37:21;100777.34;;;19.06;100.00
11440;BME280;5776;51.814;4.510;2023-07-29T09:39:51;100772.28;;;19.08;100.00
11440;BME280;5776;51.814;4.510;2023-07-29T09:42:18;100777.78;;;19.08;100.00
11440;BME280;5776;51.814;4.510;2023-07-29T09:44:45;100770.34;;;19.09;100.00
11440;BME280;5776;51.814;4.510;2023-07-29T09:47:23;100776.66;;;19.09;100.00
11440;BME280;5776;51.814;4.510;2023-07-29T09:49:51;100777.09;;;19.11;100.00
11440;BME280;5776;51.814;4.510;2023-07-29T09:52:22;100778.69;;;19.12;100.00
11440;BME280;5776;51.814;4.510;2023-07-29T09:54:49;100776.75;;;19.13;100.00
11440;BME280;5776;51.814;4.510;2023-07-29T09:57:17;100767.34;;;19.14;100.00
11440;BME280;5776;51.814;4.510;2023-07-29T09:59:55;100771.38;;;19.16;100.00
11440;BME280;5776;51.814;4.510;2023-07-29T10:02:21;100769.75;;;19.15;100.00
11440;BME280;5776;51.814;4.510;2023-07-29T10:04:48;100781.13;;;19.14;100.00
11440;BME280;5776;51.814;4.510;2023-07-29T10:07:15;100773.66;;;19.14;100.00
11440;BME280;5776;51.814;4.510;2023-07-29T10:09:42;100784.19;;;19.12;100.00
11440;BME280;5776;51.814;4.510;2023-07-29T10:12:09;100791.66;;;19.12;100.00
11440;BME280;5776;51.814;4.510;2023-07-29T10:14:36;100785.69;;;19.10;100.00
11440;BME280;5776;51.814;4.510;2023-07-29T10:17:03;100788.78;;;19.08;100.00
11440;BME280;5776;51.814;4.510;2023-07-29T10:19:31;100784.44;;;19.07;100.00
11440;BME280;5776;51.814;4.510;2023-07-29T10:21:59;100783.19;;;19.05;100.00
11440;BME280;5776;51.814;4.510;2023-07-29T10:24:30;100780.34;;;19.01;100.00
11440;BME280;5776;51.814;4.510;2023-07-29T10:26:58;100796.03;;;19.00;100.00
11440;BME280;5776;51.814;4.510;2023-07-29T10:29:32;100786.88;;;18.96;100.00
11440;BME280;5776;51.814;4.510;2023-07-29T10:32:03;100795.00;;;18.93;100.00
11440;BME280;5776;51.814;4.510;2023-07-29T10:34:31;100790.19;;;18.90;100.00
11440;BME280;5776;51.814;4.510;2023-07-29T10:36:58;100796.41;;;18.87;100.00
11440;BME280;5776;51.814;4.510;2023-07-29T10:39:25;100794.34;;;18.84;100.00
11440;BME280;5776;51.814;4.510;2023-07-29T10:42:01;100796.16;;;18.80;100.00
11440;BME280;5776;51.814;4.510;2023-07-29T10:47:12;100795.25;;;18.75;100.00
11440;BME280;5776;51.814;4.510;2023-07-29T10:49:40;100792.81;;;18.74;100.00
11440;BME280;5776;51.814;4.510;2023-07-29T10:52:06;100791.66;;;18.75;100.00
11440;BME280;5776;51.814;4.510;2023-07-29T10:54:43;100795.25;;;18.75;100.00
11440;BME280;5776;51.814;4.510;2023-07-29T10:57:13;100798.00;;;18.75;100.00
11440;BME280;5776;51.814;4.510;2023-07-29T10:59:40;100795.25;;;18.75;100.00
11440;BME280;5776;51.814;4.510;2023-07-29T11:02:17;100781.94;;;18.77;100.00
11440;BME280;5776;51.814;4.510;2023-07-29T11:04:52;100783.56;;;18.78;100.00
11440;BME280;5776;51.814;4.510;2023-07-29T11:07:19;100778.97;;;18.83;100.00
11440;BME280;5776;51.814;4.510;2023-07-29T11:09:53;100777.13;;;18.87;100.00
11440;BME280;5776;51.814;4.510;2023-07-29T11:20:17;100782.50;;;19.08;100.00
11440;BME280;5776;51.814;4.510;2023-07-29T11:22:44;100781.44;;;19.12;100.00
11440;BME280;5776;51.814;4.510;2023-07-29T11:25:12;100779.63;;;19.16;100.00
11440;BME280;5776;51.814;4.510;2023-07-29T11:27:38;100777.75;;;19.20;100.00
11440;BME280;5776;51.814;4.510;2023-07-29T11:30:07;100781.44;;;19.25;100.00
11440;BME280;5776;51.814;4.510;2023-07-29T11:32:35;100775.59;;;19.26;100.00
11440;BME280;5776;51.814;4.510;2023-07-29T11:35:06;100770.88;;;19.27;100.00
11440;BME280;5776;51.814;4.510;2023-07-29T11:37:33;100782.34;;;19.29;100.00
11440;BME280;5776;51.814;4.510;2023-07-29T11:40:00;100775.22;;;19.28;100.00
11440;BME280;5776;51.814;4.510;2023-07-29T11:42:27;100786.69;;;19.30;100.00
11440;BME280;5776;51.814;4.510;2023-07-29T11:44:56;100783.94;;;19.30;100.00
11440;BME280;5776;51.814;4.510;2023-07-29T11:47:22;100789.91;;;19.32;100.00
11440;BME280;5776;51.814;4.510;2023-07-29T11:49:48;100790.34;;;19.34;100.00
11440;BME280;5776;51.814;4.510;2023-07-29T11:52:14;100786.91;;;19.37;100.00
11440;BME280;5776;51.814;4.510;2023-07-29T11:54:45;100791.25;;;19.38;100.00
11440;BME280;5776;51.814;4.510;2023-07-29T11:57:12;100794.13;;;19.41;100.00
11440;BME280;5776;51.814;4.510;2023-07-29T11:59:39;100792.63;;;19.44;100.00
11440;BME280;5776;51.814;4.510;2023-07-29T12:02:13;100788.00;;;19.48;100.00
11440;BME280;5776;51.814;4.510;2023-07-29T12:04:41;100798.78;;;19.53;100.00
11440;BME280;5776;51.814;4.510;2023-07-29T12:07:07;100788.22;;;19.55;100.00
11440;BME280;5776;51.814;4.510;2023-07-29T12:09:34;100781.19;;;19.58;100.00
11440;BME280;5776;51.814;4.510;2023-07-29T12:12:04;100784.41;;;19.60;100.00
11440;BME280;5776;51.814;4.510;2023-07-29T12:14:31;100783.69;;;19.63;100.00
11440;BME280;5776;51.814;4.510;2023-07-29T12:17:00;100778.31;;;19.67;100.00
11440;BME280;5776;51.814;4.510;2023-07-29T12:19:32;100774.41;;;19.68;100.00
11440;BME280;5776;51.814;4.510;2023-07-29T12:21:58;100776.84;;;19.69;100.00
11440;BME280;5776;51.814;4.510;2023-07-29T12:24:24;100779.22;;;19.71;100.00
11440;BME280;5776;51.814;4.510;2023-07-29T12:26:50;100777.72;;;19.73;100.00
11440;BME280;5776;51.814;4.510;2023-07-29T12:29:18;100778.97;;;19.76;100.00
11440;BME280;5776;51.814;4.510;2023-07-29T12:31:47;100781.38;;;19.77;100.00
11440;BME280;5776;51.814;4.510;2023-07-29T12:34:20;100788.16;;;19.80;100.00
11440;BME280;5776;51.814;4.510;2023-07-29T12:36:48;100783.09;;;19.82;100.00
11440;BME280;5776;51.814;4.510;2023-07-29T12:39:27;100775.63;;;19.82;100.00
11440;BME280;5776;51.814;4.510;2023-07-29T12:41:56;100770.91;;;19.83;100.00
11440;BME280;5776;51.814;4.510;2023-07-29T12:44:23;100774.09;;;19.85;100.00
11440;BME280;5776;51.814;4.510;2023-07-29T12:46:48;100768.25;;;19.87;100.00
11440;BME280;5776;51.814;4.510;2023-07-29T12:49:14;100777.31;;;19.87;100.00
11440;BME280;5776;51.814;4.510;2023-07-29T12:51:41;100777.78;;;19.89;100.00
11440;BME280;5776;51.814;4.510;2023-07-29T12:54:07;100777.41;;;19.91;100.00
11440;BME280;5776;51.814;4.510;2023-07-29T12:56:33;100774.31;;;19.92;100.00
11440;BME280;5776;51.814;4.510;2023-07-29T12:59:00;100771.19;;;19.94;100.00
11440;BME280;5776;51.814;4.510;2023-07-29T13:01:27;100776.81;;;19.97;100.00
11440;BME280;5776;51.814;4.510;2023-07-29T13:03:54;100777.72;;;20.01;100.00
11440;BME280;5776;51.814;4.510;2023-07-29T13:06:19;100780.53;;;20.05;100.00
11440;BME280;5776;51.814;4.510;2023-07-29T13:08:45;100779.03;;;20.07;100.00